Time;durP1;ratioP1;P1;durP2;ratioP2;P2;SDS_P1;SDS_P2;PMS_P1;PMS_P2;Temp;Humidity;BMP_temperature;BMP_pressure;BME280_temperature;BME280_humidity;BME280_pressure;Samples;Min_cycle;Max_cycle;Signal;HPM_P1;HPM_P2
2021/05/18 00:03:41;;;;;;;5.85;1.42;;;;;;;;;;10362296;28;20047;-68
2021/05/18 00:13:54;;;;;;;4.32;2.08;;;;;;;;;;10361443;28;20083;-67
2021/05/18 00:18:52;;;;;;;1.83;1.30;;;;;;;;;;10362512;28;20050;-68
2021/05/18 00:23:52;;;;;;;3.60;1.60;;;;;;;;;;10361614;28;20051;-68
2021/05/18 00:28:50;;;;;;;3.38;1.20;;;;;;;;;;10362427;28;20032;-68
2021/05/18 00:33:49;;;;;;;5.78;1.35;;;;;;;;;;10360045;28;20079;-68
2021/05/18 00:38:46;;;;;;;2.55;1.27;;;;;;;;;;10361831;28;20074;-68
2021/05/18 00:43:44;;;;;;;3.28;1.88;;;;;;;;;;10361509;28;20079;-68
2021/05/18 00:48:56;;;;;;;2.58;1.88;;;;;;;;;;10360770;28;20048;-67
2021/05/18 00:54:00;;;;;;;;;;;;;;;;;;10361419;28;20071;-68
2021/05/18 00:59:05;;;;;;;3.30;1.60;;;;;;;;;;10341776;28;19919;-68
2021/05/18 01:04:03;;;;;;;3.28;1.42;;;;;;;;;;10359529;28;20057;-68
2021/05/18 01:09:08;;;;;;;2.20;1.55;;;;;;;;;;10360171;28;20420;-68
2021/05/18 01:14:11;;;;;;;2.05;1.70;;;;;;;;;;10357576;28;20493;-68
2021/05/18 01:19:09;;;;;;;3.70;1.50;;;;;;;;;;10359635;28;20079;-68
2021/05/18 01:24:09;;;;;;;2.00;1.50;;;;;;;;;;10358968;28;20382;-68
2021/05/18 01:29:08;;;;;;;4.82;2.08;;;;;;;;;;10357473;28;20055;-68
2021/05/18 01:34:12;;;;;;;3.42;2.13;;;;;;;;;;10358674;28;20076;-68
2021/05/18 01:39:30;;;;;;;4.60;1.70;;;;;;;;;;10358594;28;20091;-68
2021/05/18 01:44:28;;;;;;;7.72;2.33;;;;;;;;;;10359180;28;20055;-68
2021/05/18 01:49:26;;;;;;;4.72;2.22;;;;;;;;;;10357815;28;20048;-68
2021/05/18 01:54:27;;;;;;;2.67;2.22;;;;;;;;;;10358160;28;20466;-68
2021/05/18 01:59:26;;;;;;;4.93;2.58;;;;;;;;;;10358800;28;20035;-68
2021/05/18 02:04:26;;;;;;;4.35;2.40;;;;;;;;;;10356081;28;20055;-68
2021/05/18 02:09:26;;;;;;;4.55;2.38;;;;;;;;;;10339133;28;20059;-68
2021/05/18 02:14:29;;;;;;;3.30;2.70;;;;;;;;;;10358229;28;20082;-67
2021/05/18 02:19:51;;;;;;;4.38;2.50;;;;;;;;;;10355621;28;20161;-67
2021/05/18 02:25:03;;;;;;;8.00;3.53;;;;;;;;;;10354822;28;20052;-67
2021/05/18 02:30:38;;;;;;;5.80;2.67;;;;;;;;;;10257734;28;20059;-68
2021/05/18 02:35:37;;;;;;;3.85;2.10;;;;;;;;;;10356539;28;20067;-67
2021/05/18 02:40:36;;;;;;;2.90;2.22;;;;;;;;;;10356524;28;20066;-68
2021/05/18 02:45:40;;;;;;;2.15;2.05;;;;;;;;;;10355291;28;20048;-68
2021/05/18 02:50:40;;;;;;;2.13;1.92;;;;;;;;;;10355752;28;20055;-68
2021/05/18 02:55:45;;;;;;;4.03;1.95;;;;;;;;;;10355154;28;20515;-67
2021/05/18 03:00:43;;;;;;;3.15;2.55;;;;;;;;;;10354931;28;20047;-67
2021/05/18 03:05:41;;;;;;;4.05;2.20;;;;;;;;;;10355402;28;20527;-68
2021/05/18 03:10:41;;;;;;;3.83;2.20;;;;;;;;;;10353498;28;20527;-66
2021/05/18 03:15:39;;;;;;;2.38;2.15;;;;;;;;;;10354288;28;20075;-68
2021/05/18 03:20:37;;;;;;;2.88;2.28;;;;;;;;;;10353874;28;20469;-67
2021/05/18 03:25:35;;;;;;;3.03;2.33;;;;;;;;;;10351728;28;20075;-67
2021/05/18 03:30:48;;;;;;;2.92;1.92;;;;;;;;;;10357166;28;20047;-67
2021/05/18 03:35:46;;;;;;;2.40;1.92;;;;;;;;;;10401105;28;20431;-67
2021/05/18 03:40:50;;;;;;;6.03;1.58;;;;;;;;;;10364368;28;20214;-67
2021/05/18 03:45:53;;;;;;;4.40;2.10;;;;;;;;;;10359561;28;20068;-68
2021/05/18 04:12:10;;;;;;;3.55;1.90;;;;;;;;;;10361885;28;20076;-68
2021/05/18 04:17:09;;;;;;;1.98;1.50;;;;;;;;;;10361917;28;20044;-68
2021/05/18 04:22:28;;;;;;;5.38;1.92;;;;;;;;;;10361141;28;20072;-67
2021/05/18 04:54:11;;;;;;;3.55;2.80;;;;;;;;;;10333351;28;20075;-69
2021/05/18 04:59:13;;;;;;;3.90;3.13;;;;;;;;;;10357640;28;20442;-69
2021/05/18 05:06:11;;;;;;;6.07;3.47;;;;;;;;;;10360063;28;20047;-67
2021/05/18 05:09:43;;;;;;;5.40;3.53;;;;;;;;;;10359946;28;20044;-67
2021/05/18 05:14:41;;;;;;;5.40;3.17;;;;;;;;;;10360481;28;20079;-67
2021/05/18 05:19:40;;;;;;;2.90;2.40;;;;;;;;;;10359185;28;20043;-69
2021/05/18 05:24:38;;;;;;;3.53;2.17;;;;;;;;;;10359548;28;20043;-67
2021/05/18 05:29:35;;;;;;;2.53;2.00;;;;;;;;;;10358759;28;20051;-67
2021/05/18 05:34:33;;;;;;;3.95;2.25;;;;;;;;;;10359723;28;20528;-68
2021/05/18 05:39:32;;;;;;;3.85;1.70;;;;;;;;;;10358803;28;20476;-68
2021/05/18 05:44:30;;;;;;;5.88;2.53;;;;;;;;;;10358434;28;20482;-68
2021/05/18 05:49:28;;;;;;;2.83;1.98;;;;;;;;;;10358408;28;20048;-68
2021/05/18 05:54:25;;;;;;;4.57;1.98;;;;;;;;;;10359094;28;20078;-68
2021/05/18 05:59:24;;;;;;;2.28;1.95;;;;;;;;;;10379703;28;20099;-68
2021/05/18 06:04:22;;;;;;;5.07;1.67;;;;;;;;;;10396632;28;20078;-68
2021/05/18 06:09:20;;;;;;;25.52;2.03;;;;;;;;;;10376066;28;20047;-68
2021/05/18 06:14:32;;;;;;;3.85;2.13;;;;;;;;;;10358041;28;20087;-69
2021/05/18 06:41:13;;;;;;;7.10;2.10;;;;;;;;;;10356629;28;20068;-68
2021/05/18 06:46:18;;;;;;;3.88;1.90;;;;;;;;;;10356931;28;20048;-68
2021/05/18 06:51:18;;;;;;;3.33;1.65;;;;;;;;;;10338823;28;20040;-68
2021/05/18 06:56:16;;;;;;;4.93;1.20;;;;;;;;;;10338597;28;20052;-68
2021/05/18 07:01:14;;;;;;;4.70;1.52;;;;;;;;;;10356585;28;20074;-68
2021/05/18 07:06:25;;;;;;;2.05;1.20;;;;;;;;;;10356502;28;20055;-67
2021/05/18 07:11:24;;;;;;;3.10;1.27;;;;;;;;;;10362732;28;20067;-69
2021/05/18 07:16:22;;;;;;;4.35;1.50;;;;;;;;;;10345639;28;20075;-69
2021/05/18 07:21:21;;;;;;;1.40;1.30;;;;;;;;;;10363313;28;20040;-67
2021/05/18 07:26:20;;;;;;;3.95;1.40;;;;;;;;;;10363445;28;20040;-68
2021/05/18 07:31:19;;;;;;;2.83;1.60;;;;;;;;;;10363064;28;20036;-68
2021/05/18 07:36:17;;;;;;;1.83;1.30;;;;;;;;;;10362748;28;20052;-67
2021/05/18 07:41:14;;;;;;;6.05;1.40;;;;;;;;;;10362850;28;20052;-68
2021/05/18 07:46:17;;;;;;;4.07;1.77;;;;;;;;;;10362821;28;20067;-67
2021/05/18 07:51:27;;;;;;;5.53;1.55;;;;;;;;;;10363370;28;20083;-67
2021/05/18 08:06:53;;;;;;;4.10;1.23;;;;;;;;;;10318452;28;19967;-68
2021/05/18 08:11:51;;;;;;;2.22;1.10;;;;;;;;;;10362130;28;20051;-67
2021/05/18 08:17:06;;;;;;;4.00;1.05;;;;;;;;;;10361951;28;20068;-67
2021/05/18 10:15:12;;;;;;;5.03;2.72;;;;;;;;;;10357624;28;20079;-69
2021/05/18 10:35:47;;;;;;;2.83;1.92;;;;;;;;;;10358869;28;20050;-69
2021/05/18 10:40:45;;;;;;;4.05;2.25;;;;;;;;;;10339827;28;20056;-68
2021/05/18 10:46:00;;;;;;;4.55;1.20;;;;;;;;;;10361970;28;20055;-68
2021/05/18 10:50:59;;;;;;;3.85;2.08;;;;;;;;;;10365052;28;20535;-67
2021/05/18 10:56:03;;;;;;;4.90;1.65;;;;;;;;;;10365119;28;20120;-67
2021/05/18 11:01:02;;;;;;;6.32;2.65;;;;;;;;;;10365093;28;20055;-69
2021/05/18 11:06:05;;;;;;;3.38;1.15;;;;;;;;;;10364815;28;20082;-69
2021/05/18 11:11:04;;;;;;;3.63;2.05;;;;;;;;;;10363966;28;20339;-69
2021/05/18 11:16:14;;;;;;;8.23;2.17;;;;;;;;;;10364349;28;20083;-69
2021/05/18 11:21:13;;;;;;;3.67;2.30;;;;;;;;;;10364157;28;20082;-68
2021/05/18 11:26:12;;;;;;;1.90;1.55;;;;;;;;;;10363538;28;20070;-69
2021/05/18 11:31:11;;;;;;;3.20;1.42;;;;;;;;;;10363101;28;20051;-68
2021/05/18 11:36:10;;;;;;;2.78;1.52;;;;;;;;;;10363446;28;20079;-69
2021/05/18 11:41:09;;;;;;;5.97;1.63;;;;;;;;;;10363256;28;20063;-60
2021/05/18 11:46:08;;;;;;;3.60;1.77;;;;;;;;;;10362316;28;20056;-61
2021/05/18 11:51:07;;;;;;;9.20;3.63;;;;;;;;;;10362963;28;20484;-60
2021/05/18 11:56:23;;;;;;;5.82;1.27;;;;;;;;;;10361685;28;20488;-59
2021/05/18 12:01:22;;;;;;;7.47;1.65;;;;;;;;;;10347873;28;20060;-60
2021/05/18 12:06:19;;;;;;;2.78;1.13;;;;;;;;;;10361769;28;20092;-59
2021/05/18 12:11:18;;;;;;;5.80;1.25;;;;;;;;;;10362328;28;20055;-60
2021/05/18 12:16:17;;;;;;;10.88;1.92;;;;;;;;;;10361601;28;20492;-60
2021/05/18 12:21:17;;;;;;;7.97;2.58;;;;;;;;;;10362070;28;20064;-60
2021/05/18 12:26:16;;;;;;;4.28;1.88;;;;;;;;;;10361862;28;20047;-59
2021/05/18 12:31:24;;;;;;;5.80;1.20;;;;;;;;;;10360975;28;20048;-58
2021/05/18 12:36:23;;;;;;;9.45;1.67;;;;;;;;;;10343002;28;20071;-61
2021/05/18 12:41:21;;;;;;;3.03;2.00;;;;;;;;;;10360622;28;20094;-59
2021/05/18 12:46:19;;;;;;;7.20;2.10;;;;;;;;;;10360734;28;20032;-58
2021/05/18 12:51:18;;;;;;;5.78;3.22;;;;;;;;;;10360821;28;20074;-60
2021/05/18 12:56:28;;;;;;;3.50;2.05;;;;;;;;;;10360408;28;20535;-60
2021/05/18 13:01:28;;;;;;;5.30;2.50;;;;;;;;;;10359875;28;20052;-59
2021/05/18 13:06:27;;;;;;;7.57;1.80;;;;;;;;;;10359419;28;20500;-60
2021/05/18 13:16:45;;;;;;;7.63;2.63;;;;;;;;;;10358278;28;20520;-61
2021/05/18 13:21:52;;;;;;;5.50;1.45;;;;;;;;;;10359732;28;20044;-60
2021/05/18 13:26:50;;;;;;;4.88;2.03;;;;;;;;;;10358890;28;20077;-60
2021/05/18 13:31:49;;;;;;;7.18;1.27;;;;;;;;;;10358707;28;20063;-61
2021/05/18 13:37:07;;;;;;;7.93;2.60;;;;;;;;;;10359223;28;20110;-58
2021/05/18 13:42:05;;;;;;;4.88;1.25;;;;;;;;;;10359300;28;20056;-60
2021/05/18 13:47:09;;;;;;;5.68;1.65;;;;;;;;;;10358806;28;20071;-60
2021/05/18 13:52:07;;;;;;;10.32;2.80;;;;;;;;;;10358757;28;20079;-60
2021/05/18 13:57:05;;;;;;;4.18;0.98;;;;;;;;;;10358274;28;20310;-60
2021/05/18 14:02:03;;;;;;;8.07;2.20;;;;;;;;;;10358493;28;20052;-61
2021/05/18 14:12:25;;;;;;;13.15;2.67;;;;;;;;;;10355715;28;20056;-60
2021/05/18 14:17:23;;;;;;;8.43;1.50;;;;;;;;;;10356329;28;20087;-60
2021/05/18 14:22:23;;;;;;;10.48;2.92;;;;;;;;;;10357751;28;20071;-61
2021/05/18 14:27:21;;;;;;;9.45;5.60;;;;;;;;;;10356914;28;20082;-60
2021/05/18 14:32:21;;;;;;;10.02;4.60;;;;;;;;;;10356585;28;20044;-59
2021/05/18 14:37:18;;;;;;;9.13;1.15;;;;;;;;;;10357406;28;20075;-60
2021/05/18 14:47:40;;;;;;;4.72;2.03;;;;;;;;;;10353195;28;20483;-60
2021/05/18 14:57:54;;;;;;;4.07;1.70;;;;;;;;;;10351844;28;19959;-59
2021/05/18 15:02:52;;;;;;;6.80;2.33;;;;;;;;;;10354220;28;20450;-59
2021/05/18 15:07:52;;;;;;;8.77;2.92;;;;;;;;;;10353654;28;20064;-60
2021/05/18 15:12:50;;;;;;;8.07;2.20;;;;;;;;;;10354108;28;20086;-61
2021/05/18 15:17:53;;;;;;;5.00;1.55;;;;;;;;;;10350903;28;20441;-57
2021/05/18 15:22:51;;;;;;;5.60;1.83;;;;;;;;;;10356103;28;20452;-58
2021/05/18 15:27:49;;;;;;;7.82;1.88;;;;;;;;;;10342652;28;20083;-58
2021/05/18 15:32:47;;;;;;;2.28;1.60;;;;;;;;;;10330402;28;20036;-60
2021/05/18 15:37:45;;;;;;;6.40;2.22;;;;;;;;;;10329425;28;20479;-60
2021/05/18 15:42:43;;;;;;;10.27;1.85;;;;;;;;;;10326144;28;20052;-59
2021/05/18 15:47:42;;;;;;;4.47;2.20;;;;;;;;;;10351373;28;20064;-61
2021/05/18 15:52:40;;;;;;;3.08;1.33;;;;;;;;;;10344249;28;20067;-60
2021/05/18 15:57:38;;;;;;;4.97;2.05;;;;;;;;;;10359431;28;20083;-59
2021/05/18 16:02:36;;;;;;;3.58;1.45;;;;;;;;;;10356749;28;20067;-59
2021/05/18 16:07:36;;;;;;;5.10;1.40;;;;;;;;;;10343767;28;20064;-57
2021/05/18 16:12:34;;;;;;;9.50;3.30;;;;;;;;;;10351430;28;20483;-59
2021/05/18 16:17:33;;;;;;;5.10;2.17;;;;;;;;;;10357417;28;20080;-59
2021/05/18 16:22:31;;;;;;;5.78;1.35;;;;;;;;;;10356160;28;20063;-59
2021/05/18 16:27:29;;;;;;;7.55;2.00;;;;;;;;;;10330639;28;20099;-60
2021/05/18 16:32:26;;;;;;;5.18;1.08;;;;;;;;;;10349356;28;20072;-60
2021/05/18 16:37:25;;;;;;;8.63;1.63;;;;;;;;;;10322734;28;20072;-60
2021/05/18 16:42:24;;;;;;;4.25;1.60;;;;;;;;;;10321391;28;20061;-60
2021/05/18 16:47:22;;;;;;;3.30;1.63;;;;;;;;;;10346780;28;20457;-59
2021/05/18 16:52:20;;;;;;;6.47;2.58;;;;;;;;;;10327696;28;20098;-59
2021/05/18 16:57:19;;;;;;;7.82;2.13;;;;;;;;;;10318982;28;20083;-59
2021/05/18 17:02:18;;;;;;;4.72;1.55;;;;;;;;;;10342548;28;20075;-59
2021/05/18 17:07:16;;;;;;;10.68;3.33;;;;;;;;;;10355765;28;20040;-60
2021/05/18 17:12:18;;;;;;;4.05;1.40;;;;;;;;;;10349762;28;20413;-59
2021/05/18 17:17:17;;;;;;;3.97;1.33;;;;;;;;;;10357898;28;20090;-59
2021/05/18 17:22:17;;;;;;;3.53;1.02;;;;;;;;;;10357376;28;20086;-59
2021/05/18 17:27:16;;;;;;;7.10;1.48;;;;;;;;;;10341317;28;20075;-59
2021/05/18 17:32:15;;;;;;;9.70;2.22;;;;;;;;;;10358435;28;20036;-59
2021/05/18 17:37:15;;;;;;;2.08;1.05;;;;;;;;;;10354675;28;20519;-60
2021/05/18 17:42:15;;;;;;;3.92;2.53;;;;;;;;;;10354119;28;20110;-60
2021/05/18 17:47:14;;;;;;;2.25;1.20;;;;;;;;;;10353288;28;20080;-60
2021/05/18 17:52:12;;;;;;;3.00;1.13;;;;;;;;;;10325941;28;20047;-61
2021/05/18 17:57:11;;;;;;;2.92;1.30;;;;;;;;;;10340499;28;20072;-58
2021/05/18 18:02:11;;;;;;;6.28;1.88;;;;;;;;;;10343840;28;20067;-60
2021/05/18 18:07:09;;;;;;;6.13;1.52;;;;;;;;;;10349318;28;20104;-60
2021/05/18 18:12:08;;;;;;;2.42;1.70;;;;;;;;;;10353121;28;20489;-60
2021/05/18 18:17:11;;;;;;;2.15;1.25;;;;;;;;;;10356320;28;20455;-60
2021/05/18 18:22:09;;;;;;;2.58;1.35;;;;;;;;;;10351470;28;20075;-60
2021/05/18 18:27:08;;;;;;;4.47;1.15;;;;;;;;;;10352009;28;20079;-60
2021/05/18 18:32:07;;;;;;;5.55;1.50;;;;;;;;;;10355240;28;20048;-59
2021/05/18 18:37:07;;;;;;;4.13;1.40;;;;;;;;;;10354264;28;20079;-59
2021/05/18 18:42:05;;;;;;;1.92;1.40;;;;;;;;;;10349109;28;20076;-59
2021/05/18 18:47:03;;;;;;;6.22;1.95;;;;;;;;;;10348516;28;20122;-59
2021/05/18 18:52:04;;;;;;;2.45;0.95;;;;;;;;;;10352927;28;20484;-59
2021/05/18 18:57:02;;;;;;;2.20;1.98;;;;;;;;;;10355557;28;20116;-60
2021/05/18 19:02:03;;;;;;;5.53;1.08;;;;;;;;;;10349037;28;20071;-59
2021/05/18 19:07:05;;;;;;;3.80;1.30;;;;;;;;;;10359721;28;20092;-59
2021/05/18 19:17:21;;;;;;;3.25;1.42;;;;;;;;;;10361892;28;20484;-60
2021/05/18 19:22:20;;;;;;;1.75;1.05;;;;;;;;;;10358793;28;20076;-60
2021/05/18 19:27:18;;;;;;;4.10;1.30;;;;;;;;;;10364370;28;20048;-59
2021/05/18 19:32:16;;;;;;;2.08;1.15;;;;;;;;;;10363050;28;20047;-59
2021/05/18 19:37:23;;;;;;;3.40;1.45;;;;;;;;;;10359939;28;20452;-60
2021/05/18 19:53:12;;;;;;;4.47;1.20;;;;;;;;;;10355005;28;20076;-60
2021/05/18 20:19:45;;;;;;;3.03;1.02;;;;;;;;;;10353198;28;20150;-60
2021/05/18 20:24:42;;;;;;;3.92;0.90;;;;;;;;;;10347513;28;20075;-59
2021/05/18 20:29:41;;;;;;;1.10;0.80;;;;;;;;;;10353496;28;20079;-59
2021/05/18 20:34:55;;;;;;;1.40;1.30;;;;;;;;;;10359427;28;20071;-60
2021/05/18 20:39:54;;;;;;;1.00;0.98;;;;;;;;;;10357764;28;20087;-59
2021/05/18 20:44:53;;;;;;;5.32;1.05;;;;;;;;;;10359558;28;20103;-58
2021/05/18 20:49:52;;;;;;;4.22;1.08;;;;;;;;;;10359752;28;20068;-59
2021/05/18 20:54:50;;;;;;;2.28;1.05;;;;;;;;;;10359681;28;20074;-58
2021/05/18 20:59:48;;;;;;;2.88;1.42;;;;;;;;;;10359063;28;20083;-58
2021/05/18 21:04:47;;;;;;;2.85;1.10;;;;;;;;;;10376292;28;20068;-59
2021/05/18 21:09:53;;;;;;;1.65;1.13;;;;;;;;;;10359050;28;20067;-60
2021/05/18 21:20:09;;;;;;;1.05;1.05;;;;;;;;;;10317053;28;20833;-59
2021/05/18 21:25:17;;;;;;;3.08;0.93;;;;;;;;;;10317537;28;20083;-60
2021/05/18 21:30:15;;;;;;;1.10;1.00;;;;;;;;;;10316992;28;20067;-59
2021/05/18 21:35:14;;;;;;;1.58;0.95;;;;;;;;;;10316289;28;20076;-58
2021/05/18 21:40:14;;;;;;;1.00;0.90;;;;;;;;;;10325591;28;20075;-59
2021/05/18 21:45:12;;;;;;;4.05;1.00;;;;;;;;;;10353222;28;20507;-58
2021/05/18 21:50:10;;;;;;;3.88;1.10;;;;;;;;;;10356549;28;20075;-59
2021/05/18 21:55:10;;;;;;;2.00;0.90;;;;;;;;;;10350833;28;20099;-59
2021/05/18 22:00:13;;;;;;;2.45;0.90;;;;;;;;;;10353419;28;20075;-59
2021/05/18 22:05:12;;;;;;;0.82;0.73;;;;;;;;;;10355861;28;20071;-59
2021/05/18 22:10:15;;;;;;;3.25;0.77;;;;;;;;;;10356812;28;20083;-59
2021/05/18 22:15:34;;;;;;;1.30;1.00;;;;;;;;;;10352026;28;20072;-59
2021/05/18 22:26:06;;;;;;;1.23;0.60;;;;;;;;;;10355696;28;20135;-60
2021/05/18 22:31:04;;;;;;;2.10;0.90;;;;;;;;;;10356585;28;20082;-59
2021/05/18 22:36:02;;;;;;;1.05;0.80;;;;;;;;;;10356751;28;20055;-60
2021/05/18 22:41:01;;;;;;;2.65;0.77;;;;;;;;;;10355318;28;20060;-59
2021/05/18 22:45:59;;;;;;;0.90;0.80;;;;;;;;;;10355360;28;20048;-59
2021/05/18 22:50:57;;;;;;;4.88;1.00;;;;;;;;;;10302082;28;20406;-60
2021/05/18 22:55:55;;;;;;;2.35;0.80;;;;;;;;;;10314482;28;20076;-59
2021/05/18 23:00:53;;;;;;;3.17;0.90;;;;;;;;;;10315043;28;20068;-60
2021/05/18 23:05:51;;;;;;;1.90;1.08;;;;;;;;;;10314493;28;20052;-60
2021/05/18 23:10:49;;;;;;;0.85;0.80;;;;;;;;;;10314392;28;20044;-60
2021/05/18 23:15:49;;;;;;;0.85;0.70;;;;;;;;;;10315003;28;20501;-60
2021/05/18 23:20:48;;;;;;;1.08;0.93;;;;;;;;;;10321899;28;20079;-60
2021/05/18 23:25:46;;;;;;;1.30;0.88;;;;;;;;;;10353548;28;20079;-59
2021/05/18 23:30:44;;;;;;;3.60;0.98;;;;;;;;;;10355228;28;20036;-59
2021/05/18 23:35:42;;;;;;;1.30;1.20;;;;;;;;;;10355327;28;20047;-60
2021/05/18 23:40:40;;;;;;;1.17;0.90;;;;;;;;;;10355454;28;20822;-60
2021/05/18 23:45:38;;;;;;;1.80;1.23;;;;;;;;;;10355025;28;20040;-61
2021/05/18 23:50:36;;;;;;;5.05;1.30;;;;;;;;;;10355972;28;20040;-61
2021/05/18 23:55:34;;;;;;;1.48;1.10;;;;;;;;;;10362784;28;20044;-60
